KSWF/SWF METAR and TAF weather

Enter ICAO airport designator
Station Type Date Time Source
KSWF METAR 2022/12/04 10:45 UTC NOAA

KSWF 041045Z 31008KT 10SM SCT040 00/M07 A3017


Station Type Date Time Source
KSWF Decoded METAR 2022/12/04 10:45 UTC NOAA

Newburgh / Stewart, NY, United States (KSWF) 41-30N 074-06W
Dec 04, 2022 - 05:45 AM EST / 2022.12.04 1045 UTC
Wind: from the NW (310 degrees) at 9 MPH (8 KT):0
Visibility: 10 mile(s):0
Sky conditions: partly cloudy
Temperature: 32 F (0 C)
Windchill: 24 F (-4 C):1
Dew Point: 19 F (-7 C)
Relative Humidity: 59%
Pressure (altimeter): 30.17 in. Hg (1021 hPa)
ob: KSWF 041045Z 31008KT 10SM SCT040 00/M07 A3017
cycle: 11

Station Type Date Time Source
KSWF TAF 2022/12/04 09:36 UTC NOAA

TAF
AMD KSWF 040835Z 0409/0512 30010KT P6SM FEW035
FM042200 25005KT P6SM FEW035
FM050000 VRB03KT P6SM SKC
AMD NOT SKED

Example: see airport list